sensor_id;sensor_type;location;lat;lon;timestamp;pressure;altitude;pressure_sealevel;temperature;humidity
30554;BME280;17335;50.720;7.452;2024-01-30T00:01:29;100506.91;;;5.68;100.00
30554;BME280;17335;50.720;7.452;2024-01-30T00:03:55;100514.91;;;5.68;100.00
30554;BME280;17335;50.720;7.452;2024-01-30T00:06:22;100510.59;;;5.65;100.00
30554;BME280;17335;50.720;7.452;2024-01-30T00:08:49;100505.47;;;5.78;100.00
30554;BME280;17335;50.720;7.452;2024-01-30T00:11:16;100508.88;;;5.80;100.00
30554;BME280;17335;50.720;7.452;2024-01-30T00:13:43;100510.78;;;5.78;100.00
30554;BME280;17335;50.720;7.452;2024-01-30T00:16:20;100507.00;;;5.82;100.00
30554;BME280;17335;50.720;7.452;2024-01-30T00:18:46;100506.81;;;5.85;100.00
30554;BME280;17335;50.720;7.452;2024-01-30T00:21:13;100503.88;;;5.74;100.00
30554;BME280;17335;50.720;7.452;2024-01-30T00:23:40;100500.38;;;5.73;100.00
30554;BME280;17335;50.720;7.452;2024-01-30T00:26:07;100499.00;;;5.82;100.00
30554;BME280;17335;50.720;7.452;2024-01-30T00:28:33;100500.03;;;5.79;100.00
30554;BME280;17335;50.720;7.452;2024-01-30T00:31:00;100495.47;;;5.81;100.00
30554;BME280;17335;50.720;7.452;2024-01-30T00:33:26;100500.19;;;5.92;100.00
30554;BME280;17335;50.720;7.452;2024-01-30T00:35:53;100490.59;;;5.90;100.00
30554;BME280;17335;50.720;7.452;2024-01-30T00:38:20;100483.94;;;5.81;100.00
30554;BME280;17335;50.720;7.452;2024-01-30T00:40:46;100492.84;;;5.97;100.00
30554;BME280;17335;50.720;7.452;2024-01-30T00:43:13;100483.28;;;5.93;100.00
30554;BME280;17335;50.720;7.452;2024-01-30T00:45:39;100487.63;;;5.94;100.00
30554;BME280;17335;50.720;7.452;2024-01-30T00:48:06;100484.00;;;5.97;100.00
30554;BME280;17335;50.720;7.452;2024-01-30T00:50:32;100487.22;;;5.86;100.00
30554;BME280;17335;50.720;7.452;2024-01-30T00:52:59;100481.03;;;5.86;100.00
30554;BME280;17335;50.720;7.452;2024-01-30T00:55:25;100484.50;;;6.04;100.00
30554;BME280;17335;50.720;7.452;2024-01-30T00:57:52;100482.25;;;5.96;100.00
30554;BME280;17335;50.720;7.452;2024-01-30T01:00:18;100480.28;;;5.99;100.00
30554;BME280;17335;50.720;7.452;2024-01-30T01:02:47;100484.66;;;6.00;100.00
30554;BME280;17335;50.720;7.452;2024-01-30T01:05:13;100482.38;;;5.93;100.00
30554;BME280;17335;50.720;7.452;2024-01-30T01:07:40;100476.84;;;5.97;100.00
30554;BME280;17335;50.720;7.452;2024-01-30T01:10:09;100479.22;;;5.86;100.00
30554;BME280;17335;50.720;7.452;2024-01-30T01:12:37;100486.72;;;5.95;100.00
30554;BME280;17335;50.720;7.452;2024-01-30T01:15:04;100485.34;;;5.88;100.00
30554;BME280;17335;50.720;7.452;2024-01-30T01:17:31;100477.06;;;5.93;100.00
30554;BME280;17335;50.720;7.452;2024-01-30T01:19:57;100476.38;;;5.89;100.00
30554;BME280;17335;50.720;7.452;2024-01-30T01:22:25;100474.00;;;6.00;100.00
30554;BME280;17335;50.720;7.452;2024-01-30T01:24:51;100475.72;;;6.01;100.00
30554;BME280;17335;50.720;7.452;2024-01-30T01:27:18;100473.03;;;6.01;100.00
30554;BME280;17335;50.720;7.452;2024-01-30T01:29:44;100477.44;;;6.03;100.00
30554;BME280;17335;50.720;7.452;2024-01-30T01:32:11;100474.69;;;6.04;100.00
30554;BME280;17335;50.720;7.452;2024-01-30T01:34:38;100468.31;;;6.07;100.00
30554;BME280;17335;50.720;7.452;2024-01-30T01:37:05;100475.28;;;6.09;100.00
30554;BME280;17335;50.720;7.452;2024-01-30T01:39:32;100470.53;;;6.14;100.00
30554;BME280;17335;50.720;7.452;2024-01-30T01:41:58;100461.25;;;6.22;100.00
30554;BME280;17335;50.720;7.452;2024-01-30T01:44:26;100462.28;;;6.19;100.00
30554;BME280;17335;50.720;7.452;2024-01-30T01:46:54;100460.97;;;6.26;100.00
30554;BME280;17335;50.720;7.452;2024-01-30T01:49:23;100469.84;;;6.27;100.00
30554;BME280;17335;50.720;7.452;2024-01-30T01:51:51;100466.13;;;6.29;100.00
30554;BME280;17335;50.720;7.452;2024-01-30T01:54:20;100464.75;;;6.22;100.00
30554;BME280;17335;50.720;7.452;2024-01-30T01:56:47;100468.72;;;6.15;100.00
30554;BME280;17335;50.720;7.452;2024-01-30T01:59:14;100464.66;;;6.24;100.00
30554;BME280;17335;50.720;7.452;2024-01-30T02:01:41;100470.09;;;6.22;100.00
30554;BME280;17335;50.720;7.452;2024-01-30T02:04:08;100455.22;;;6.18;100.00
30554;BME280;17335;50.720;7.452;2024-01-30T02:06:35;100466.44;;;6.09;100.00
30554;BME280;17335;50.720;7.452;2024-01-30T02:09:01;100468.66;;;6.16;100.00
30554;BME280;17335;50.720;7.452;2024-01-30T02:11:28;100465.38;;;6.11;100.00
30554;BME280;17335;50.720;7.452;2024-01-30T02:13:54;100465.47;;;6.10;100.00
30554;BME280;17335;50.720;7.452;2024-01-30T02:16:21;100460.72;;;6.15;100.00
30554;BME280;17335;50.720;7.452;2024-01-30T02:18:47;100468.56;;;6.18;100.00
30554;BME280;17335;50.720;7.452;2024-01-30T02:21:15;100456.63;;;6.09;100.00
30554;BME280;17335;50.720;7.452;2024-01-30T02:23:43;100461.69;;;6.14;100.00
30554;BME280;17335;50.720;7.452;2024-01-30T02:26:11;100455.22;;;6.18;100.00
30554;BME280;17335;50.720;7.452;2024-01-30T02:28:38;100457.31;;;6.13;100.00
30554;BME280;17335;50.720;7.452;2024-01-30T02:31:05;100464.00;;;6.20;100.00
30554;BME280;17335;50.720;7.452;2024-01-30T02:33:32;100462.47;;;6.16;100.00
30554;BME280;17335;50.720;7.452;2024-01-30T02:35:58;100456.25;;;6.15;100.00
30554;BME280;17335;50.720;7.452;2024-01-30T02:38:25;100453.50;;;6.17;100.00
30554;BME280;17335;50.720;7.452;2024-01-30T02:40:53;100451.63;;;6.19;100.00
30554;BME280;17335;50.720;7.452;2024-01-30T02:43:19;100450.75;;;6.18;100.00
30554;BME280;17335;50.720;7.452;2024-01-30T02:45:46;100441.22;;;6.14;100.00
30554;BME280;17335;50.720;7.452;2024-01-30T02:48:12;100452.91;;;6.12;100.00
30554;BME280;17335;50.720;7.452;2024-01-30T02:50:39;100440.16;;;6.17;100.00
30554;BME280;17335;50.720;7.452;2024-01-30T02:53:05;100454.16;;;6.20;100.00
30554;BME280;17335;50.720;7.452;2024-01-30T02:55:33;100445.91;;;6.25;100.00
30554;BME280;17335;50.720;7.452;2024-01-30T02:57:59;100449.22;;;6.14;100.00
30554;BME280;17335;50.720;7.452;2024-01-30T03:00:26;100446.63;;;6.13;100.00
30554;BME280;17335;50.720;7.452;2024-01-30T03:02:52;100435.81;;;6.16;100.00
30554;BME280;17335;50.720;7.452;2024-01-30T03:05:19;100449.13;;;6.16;100.00
30554;BME280;17335;50.720;7.452;2024-01-30T03:07:45;100434.91;;;6.15;100.00
30554;BME280;17335;50.720;7.452;2024-01-30T03:10:12;100432.97;;;6.19;100.00
30554;BME280;17335;50.720;7.452;2024-01-30T03:12:38;100428.91;;;6.12;100.00
30554;BME280;17335;50.720;7.452;2024-01-30T03:15:05;100430.81;;;6.10;100.00
30554;BME280;17335;50.720;7.452;2024-01-30T03:17:32;100436.31;;;6.07;100.00
30554;BME280;17335;50.720;7.452;2024-01-30T03:19:58;100429.28;;;6.06;100.00
30554;BME280;17335;50.720;7.452;2024-01-30T03:26:07;100423.56;;;6.12;100.00
30554;BME280;17335;50.720;7.452;2024-01-30T03:28:33;100417.91;;;6.18;100.00
30554;BME280;17335;50.720;7.452;2024-01-30T03:31:00;100423.56;;;6.12;100.00
30554;BME280;17335;50.720;7.452;2024-01-30T03:33:27;100421.88;;;6.11;100.00
30554;BME280;17335;50.720;7.452;2024-01-30T03:35:54;100413.78;;;6.12;100.00
30554;BME280;17335;50.720;7.452;2024-01-30T03:38:21;100411.81;;;6.16;100.00
30554;BME280;17335;50.720;7.452;2024-01-30T03:40:47;100409.13;;;6.16;100.00
30554;BME280;17335;50.720;7.452;2024-01-30T03:43:13;100404.56;;;6.18;100.00
30554;BME280;17335;50.720;7.452;2024-01-30T03:45:40;100415.41;;;6.15;100.00
30554;BME280;17335;50.720;7.452;2024-01-30T03:48:07;100414.81;;;6.10;100.00
30554;BME280;17335;50.720;7.452;2024-01-30T03:50:33;100415.97;;;6.06;100.00
30554;BME280;17335;50.720;7.452;2024-01-30T03:53:00;100416.53;;;6.11;100.00
30554;BME280;17335;50.720;7.452;2024-01-30T03:55:26;100421.72;;;6.14;100.00
30554;BME280;17335;50.720;7.452;2024-01-30T03:57:53;100421.13;;;6.09;100.00
30554;BME280;17335;50.720;7.452;2024-01-30T04:00:19;100427.47;;;6.06;100.00
30554;BME280;17335;50.720;7.452;2024-01-30T04:02:46;100432.56;;;5.95;100.00
30554;BME280;17335;50.720;7.452;2024-01-30T04:05:13;100425.84;;;6.04;100.00
30554;BME280;17335;50.720;7.452;2024-01-30T04:07:39;100429.78;;;5.96;100.00
30554;BME280;17335;50.720;7.452;2024-01-30T04:10:06;100424.31;;;5.99;100.00
30554;BME280;17335;50.720;7.452;2024-01-30T04:12:33;100427.22;;;5.95;100.00
30554;BME280;17335;50.720;7.452;2024-01-30T04:14:59;100424.81;;;5.90;100.00
30554;BME280;17335;50.720;7.452;2024-01-30T04:17:26;100430.31;;;5.87;100.00
30554;BME280;17335;50.720;7.452;2024-01-30T04:19:52;100428.88;;;5.81;100.00
30554;BME280;17335;50.720;7.452;2024-01-30T04:22:19;100427.81;;;5.84;100.00
30554;BME280;17335;50.720;7.452;2024-01-30T04:24:46;100424.56;;;5.79;100.00
30554;BME280;17335;50.720;7.452;2024-01-30T04:27:13;100423.63;;;5.80;100.00
30554;BME280;17335;50.720;7.452;2024-01-30T04:29:39;100422.94;;;5.76;100.00
30554;BME280;17335;50.720;7.452;2024-01-30T04:32:07;100433.50;;;5.78;100.00
30554;BME280;17335;50.720;7.452;2024-01-30T04:34:33;100429.47;;;5.87;100.00
30554;BME280;17335;50.720;7.452;2024-01-30T04:37:00;100433.06;;;5.70;100.00
30554;BME280;17335;50.720;7.452;2024-01-30T04:39:26;100429.72;;;5.66;100.00
30554;BME280;17335;50.720;7.452;2024-01-30T04:41:53;100425.88;;;5.40;100.00
30554;BME280;17335;50.720;7.452;2024-01-30T04:44:19;100427.13;;;5.33;100.00
30554;BME280;17335;50.720;7.452;2024-01-30T04:46:46;100424.81;;;5.26;100.00
30554;BME280;17335;50.720;7.452;2024-01-30T04:49:12;100410.06;;;5.21;100.00
30554;BME280;17335;50.720;7.452;2024-01-30T04:51:39;100416.84;;;5.42;100.00
30554;BME280;17335;50.720;7.452;2024-01-30T04:54:06;100421.03;;;5.47;100.00
30554;BME280;17335;50.720;7.452;2024-01-30T04:56:32;100415.72;;;5.47;100.00
30554;BME280;17335;50.720;7.452;2024-01-30T04:58:59;100418.56;;;5.59;100.00
30554;BME280;17335;50.720;7.452;2024-01-30T05:01:25;100427.38;;;5.76;100.00
30554;BME280;17335;50.720;7.452;2024-01-30T05:03:52;100412.53;;;5.72;100.00
30554;BME280;17335;50.720;7.452;2024-01-30T05:06:25;100408.41;;;5.82;100.00
30554;BME280;17335;50.720;7.452;2024-01-30T05:08:52;100409.84;;;5.88;100.00
30554;BME280;17335;50.720;7.452;2024-01-30T05:11:19;100406.25;;;5.89;100.00
30554;BME280;17335;50.720;7.452;2024-01-30T05:13:45;100397.97;;;5.93;100.00
30554;BME280;17335;50.720;7.452;2024-01-30T05:16:12;100398.59;;;5.98;100.00
30554;BME280;17335;50.720;7.452;2024-01-30T05:18:38;100414.91;;;6.08;100.00
30554;BME280;17335;50.720;7.452;2024-01-30T05:21:06;100404.63;;;6.02;100.00
30554;BME280;17335;50.720;7.452;2024-01-30T05:23:32;100415.38;;;6.00;100.00
30554;BME280;17335;50.720;7.452;2024-01-30T05:25:59;100411.66;;;6.03;100.00
30554;BME280;17335;50.720;7.452;2024-01-30T05:28:27;100411.47;;;5.90;100.00
30554;BME280;17335;50.720;7.452;2024-01-30T05:30:53;100411.56;;;5.89;100.00
30554;BME280;17335;50.720;7.452;2024-01-30T05:33:20;100414.50;;;5.84;100.00
30554;BME280;17335;50.720;7.452;2024-01-30T05:35:46;100408.94;;;5.73;100.00
30554;BME280;17335;50.720;7.452;2024-01-30T05:38:13;100416.31;;;5.68;100.00
30554;BME280;17335;50.720;7.452;2024-01-30T05:40:40;100415.56;;;5.66;100.00
30554;BME280;17335;50.720;7.452;2024-01-30T05:43:06;100417.72;;;5.59;100.00
30554;BME280;17335;50.720;7.452;2024-01-30T05:45:34;100426.09;;;5.67;100.00
30554;BME280;17335;50.720;7.452;2024-01-30T05:48:01;100424.41;;;5.66;100.00
30554;BME280;17335;50.720;7.452;2024-01-30T05:50:28;100431.44;;;5.67;100.00
30554;BME280;17335;50.720;7.452;2024-01-30T05:52:55;100426.38;;;5.62;100.00
30554;BME280;17335;50.720;7.452;2024-01-30T05:55:21;100422.94;;;5.44;100.00
30554;BME280;17335;50.720;7.452;2024-01-30T05:57:48;100423.97;;;5.42;100.00
30554;BME280;17335;50.720;7.452;2024-01-30T06:00:15;100428.53;;;5.40;100.00
30554;BME280;17335;50.720;7.452;2024-01-30T06:02:41;100426.88;;;5.37;100.00
30554;BME280;17335;50.720;7.452;2024-01-30T06:05:08;100423.97;;;5.26;100.00
30554;BME280;17335;50.720;7.452;2024-01-30T06:07:35;100427.81;;;5.20;100.00
30554;BME280;17335;50.720;7.452;2024-01-30T06:10:03;100422.56;;;5.19;100.00
30554;BME280;17335;50.720;7.452;2024-01-30T06:12:30;100424.81;;;5.26;100.00
30554;BME280;17335;50.720;7.452;2024-01-30T06:14:56;100424.13;;;5.23;100.00
30554;BME280;17335;50.720;7.452;2024-01-30T06:17:23;100424.38;;;5.18;100.00
30554;BME280;17335;50.720;7.452;2024-01-30T06:19:50;100422.31;;;5.23;100.00
30554;BME280;17335;50.720;7.452;2024-01-30T06:22:16;100432.19;;;5.21;100.00
30554;BME280;17335;50.720;7.452;2024-01-30T06:24:43;100423.53;;;5.34;100.00
30554;BME280;17335;50.720;7.452;2024-01-30T06:27:11;100416.91;;;5.41;100.00
30554;BME280;17335;50.720;7.452;2024-01-30T06:29:38;100410.50;;;5.45;100.00
30554;BME280;17335;50.720;7.452;2024-01-30T06:32:05;100425.06;;;5.38;100.00
30554;BME280;17335;50.720;7.452;2024-01-30T06:34:31;100414.34;;;5.39;100.00
30554;BME280;17335;50.720;7.452;2024-01-30T06:36:58;100415.38;;;5.53;100.00
30554;BME280;17335;50.720;7.452;2024-01-30T06:39:25;100421.31;;;5.58;100.00
30554;BME280;17335;50.720;7.452;2024-01-30T06:41:52;100417.72;;;5.59;100.00
30554;BME280;17335;50.720;7.452;2024-01-30T06:44:19;100424.13;;;5.71;100.00
30554;BME280;17335;50.720;7.452;2024-01-30T06:46:45;100423.44;;;5.67;100.00
30554;BME280;17335;50.720;7.452;2024-01-30T06:49:11;100429.28;;;5.58;100.00
30554;BME280;17335;50.720;7.452;2024-01-30T06:51:38;100425.63;;;5.60;100.00
30554;BME280;17335;50.720;7.452;2024-01-30T06:54:04;100421.13;;;5.61;100.00
30554;BME280;17335;50.720;7.452;2024-01-30T06:56:31;100425.25;;;5.67;100.00
30554;BME280;17335;50.720;7.452;2024-01-30T06:58:58;100422.06;;;5.60;100.00
30554;BME280;17335;50.720;7.452;2024-01-30T07:01:29;100419.31;;;5.61;100.00
30554;BME280;17335;50.720;7.452;2024-01-30T07:03:57;100428.28;;;5.60;100.00
30554;BME280;17335;50.720;7.452;2024-01-30T07:06:24;100412.19;;;5.62;100.00
30554;BME280;17335;50.720;7.452;2024-01-30T07:08:51;100423.13;;;5.57;100.00
30554;BME280;17335;50.720;7.452;2024-01-30T07:11:21;100427.16;;;5.64;100.00
30554;BME280;17335;50.720;7.452;2024-01-30T07:13:51;100430.50;;;5.52;100.00
30554;BME280;17335;50.720;7.452;2024-01-30T07:16:17;100430.00;;;5.45;100.00
30554;BME280;17335;50.720;7.452;2024-01-30T07:18:44;100428.44;;;5.57;100.00
30554;BME280;17335;50.720;7.452;2024-01-30T07:21:12;100427.69;;;5.55;100.00
30554;BME280;17335;50.720;7.452;2024-01-30T07:23:39;100420.59;;;5.70;100.00
30554;BME280;17335;50.720;7.452;2024-01-30T07:26:05;100426.38;;;5.62;100.00
30554;BME280;17335;50.720;7.452;2024-01-30T07:28:32;100419.69;;;5.71;100.00
30554;BME280;17335;50.720;7.452;2024-01-30T07:31:00;100420.78;;;5.67;100.00
30554;BME280;17335;50.720;7.452;2024-01-30T07:33:27;100415.03;;;5.75;100.00
30554;BME280;17335;50.720;7.452;2024-01-30T07:35:53;100406.66;;;5.81;100.00
30554;BME280;17335;50.720;7.452;2024-01-30T07:38:20;100418.13;;;5.83;100.00
30554;BME280;17335;50.720;7.452;2024-01-30T07:40:46;100416.31;;;5.99;100.00
30554;BME280;17335;50.720;7.452;2024-01-30T07:43:13;100405.72;;;5.98;100.00
30554;BME280;17335;50.720;7.452;2024-01-30T07:45:39;100412.63;;;6.02;100.00
30554;BME280;17335;50.720;7.452;2024-01-30T07:48:06;100408.03;;;6.04;100.00
30554;BME280;17335;50.720;7.452;2024-01-30T07:50:33;100404.03;;;5.97;100.00
30554;BME280;17335;50.720;7.452;2024-01-30T07:53:00;100412.06;;;5.95;100.00
30554;BME280;17335;50.720;7.452;2024-01-30T07:55:27;100416.72;;;6.08;100.00
30554;BME280;17335;50.720;7.452;2024-01-30T07:57:55;100423.56;;;6.12;100.00
30554;BME280;17335;50.720;7.452;2024-01-30T08:00:22;100421.41;;;6.18;100.00
30554;BME280;17335;50.720;7.452;2024-01-30T08:02:48;100418.47;;;6.23;100.00
30554;BME280;17335;50.720;7.452;2024-01-30T08:05:15;100419.41;;;6.22;100.00
30554;BME280;17335;50.720;7.452;2024-01-30T08:07:42;100425.94;;;6.32;100.00
30554;BME280;17335;50.720;7.452;2024-01-30T08:10:11;100418.13;;;6.29;100.00
30554;BME280;17335;50.720;7.452;2024-01-30T08:12:37;100422.41;;;6.32;100.00
30554;BME280;17335;50.720;7.452;2024-01-30T08:15:05;100427.31;;;6.40;100.00
30554;BME280;17335;50.720;7.452;2024-01-30T08:17:31;100421.75;;;6.43;100.00
30554;BME280;17335;50.720;7.452;2024-01-30T08:19:58;100417.81;;;6.50;100.00
30554;BME280;17335;50.720;7.452;2024-01-30T08:22:24;100417.81;;;6.50;100.00
30554;BME280;17335;50.720;7.452;2024-01-30T08:24:51;100415.31;;;6.47;100.00
30554;BME280;17335;50.720;7.452;2024-01-30T08:27:17;100419.69;;;6.48;100.00
30554;BME280;17335;50.720;7.452;2024-01-30T08:29:44;100425.59;;;6.53;100.00
30554;BME280;17335;50.720;7.452;2024-01-30T08:32:11;100423.72;;;6.55;100.00
30554;BME280;17335;50.720;7.452;2024-01-30T08:34:37;100420.66;;;6.61;100.00
30554;BME280;17335;50.720;7.452;2024-01-30T08:37:04;100425.34;;;6.57;100.00
30554;BME280;17335;50.720;7.452;2024-01-30T08:39:30;100419.81;;;6.61;100.00
30554;BME280;17335;50.720;7.452;2024-01-30T08:41:57;100424.84;;;6.65;100.00
30554;BME280;17335;50.720;7.452;2024-01-30T08:44:24;100426.97;;;6.74;100.00
30554;BME280;17335;50.720;7.452;2024-01-30T08:46:50;100435.06;;;6.73;100.00
30554;BME280;17335;50.720;7.452;2024-01-30T08:49:17;100421.81;;;6.71;100.00
30554;BME280;17335;50.720;7.452;2024-01-30T08:51:43;100418.50;;;6.82;100.00
30554;BME280;17335;50.720;7.452;2024-01-30T08:54:10;100425.84;;;6.93;100.00
30554;BME280;17335;50.720;7.452;2024-01-30T08:56:36;100419.47;;;6.95;100.00
30554;BME280;17335;50.720;7.452;2024-01-30T08:59:03;100407.25;;;6.91;100.00
30554;BME280;17335;50.720;7.452;2024-01-30T09:01:29;100403.34;;;6.97;100.00
30554;BME280;17335;50.720;7.452;2024-01-30T09:03:57;100411.16;;;7.00;100.00
30554;BME280;17335;50.720;7.452;2024-01-30T09:06:24;100407.53;;;7.01;100.00
30554;BME280;17335;50.720;7.452;2024-01-30T09:08:52;100410.19;;;7.01;100.00
30554;BME280;17335;50.720;7.452;2024-01-30T09:11:19;100407.66;;;7.00;100.00
30554;BME280;17335;50.720;7.452;2024-01-30T09:13:45;100416.09;;;7.06;100.00
30554;BME280;17335;50.720;7.452;2024-01-30T09:16:12;100417.66;;;7.10;100.00
30554;BME280;17335;50.720;7.452;2024-01-30T09:18:38;100418.41;;;7.12;100.00
30554;BME280;17335;50.720;7.452;2024-01-30T09:21:05;100420.72;;;7.19;100.00
30554;BME280;17335;50.720;7.452;2024-01-30T09:23:32;100425.81;;;7.22;100.00
30554;BME280;17335;50.720;7.452;2024-01-30T09:25:59;100437.31;;;7.24;100.00
30554;BME280;17335;50.720;7.452;2024-01-30T09:28:25;100446.16;;;7.24;100.00
30554;BME280;17335;50.720;7.452;2024-01-30T09:30:53;100454.34;;;7.36;100.00
30554;BME280;17335;50.720;7.452;2024-01-30T09:33:19;100454.06;;;7.40;100.00
30554;BME280;17335;50.720;7.452;2024-01-30T09:35:46;100457.56;;;7.55;100.00
30554;BME280;17335;50.720;7.452;2024-01-30T09:38:13;100453.59;;;7.48;100.00
30554;BME280;17335;50.720;7.452;2024-01-30T09:40:39;100460.94;;;7.44;100.00
30554;BME280;17335;50.720;7.452;2024-01-30T09:43:08;100461.59;;;7.48;100.00
30554;BME280;17335;50.720;7.452;2024-01-30T09:45:37;100468.63;;;7.63;100.00
30554;BME280;17335;50.720;7.452;2024-01-30T09:48:04;100460.38;;;7.81;100.00
30554;BME280;17335;50.720;7.452;2024-01-30T09:50:31;100466.78;;;7.78;100.00
30554;BME280;17335;50.720;7.452;2024-01-30T09:52:59;100462.31;;;7.79;100.00
30554;BME280;17335;50.720;7.452;2024-01-30T09:55:26;100459.13;;;7.86;100.00
30554;BME280;17335;50.720;7.452;2024-01-30T09:57:52;100457.41;;;7.85;100.00
30554;BME280;17335;50.720;7.452;2024-01-30T10:00:19;100469.22;;;7.96;100.00
30554;BME280;17335;50.720;7.452;2024-01-30T10:02:46;100458.72;;;7.93;100.00
30554;BME280;17335;50.720;7.452;2024-01-30T10:05:15;100459.16;;;7.99;100.00
30554;BME280;17335;50.720;7.452;2024-01-30T10:07:54;100465.69;;;8.22;100.00
30554;BME280;17335;50.720;7.452;2024-01-30T10:10:25;100468.38;;;8.35;100.00
30554;BME280;17335;50.720;7.452;2024-01-30T10:12:52;100464.47;;;8.41;100.00
30554;BME280;17335;50.720;7.452;2024-01-30T10:15:19;100456.56;;;8.52;100.00
30554;BME280;17335;50.720;7.452;2024-01-30T10:17:45;100470.28;;;8.48;100.00
30554;BME280;17335;50.720;7.452;2024-01-30T10:20:12;100467.06;;;8.55;100.00
30554;BME280;17335;50.720;7.452;2024-01-30T10:22:40;100459.38;;;8.63;100.00
30554;BME280;17335;50.720;7.452;2024-01-30T10:25:09;100460.88;;;8.68;100.00
30554;BME280;17335;50.720;7.452;2024-01-30T10:27:36;100466.13;;;8.69;100.00
30554;BME280;17335;50.720;7.452;2024-01-30T10:30:03;100462.81;;;8.78;100.00
30554;BME280;17335;50.720;7.452;2024-01-30T10:32:30;100470.53;;;8.83;100.00
30554;BME280;17335;50.720;7.452;2024-01-30T10:34:57;100463.16;;;8.74;100.00
30554;BME280;17335;50.720;7.452;2024-01-30T10:37:25;100464.53;;;8.79;100.00
30554;BME280;17335;50.720;7.452;2024-01-30T10:39:53;100465.19;;;8.70;100.00
30554;BME280;17335;50.720;7.452;2024-01-30T10:42:26;100461.31;;;8.74;100.00
30554;BME280;17335;50.720;7.452;2024-01-30T10:45:00;100473.22;;;8.70;100.00
30554;BME280;17335;50.720;7.452;2024-01-30T10:47:30;100460.69;;;8.71;100.00
30554;BME280;17335;50.720;7.452;2024-01-30T10:49:57;100475.16;;;8.81;100.00
30554;BME280;17335;50.720;7.452;2024-01-30T10:52:24;100479.88;;;9.03;100.00
30554;BME280;17335;50.720;7.452;2024-01-30T10:54:54;100472.69;;;9.16;100.00
30554;BME280;17335;50.720;7.452;2024-01-30T10:57:23;100477.81;;;9.19;100.00
30554;BME280;17335;50.720;7.452;2024-01-30T10:59:51;100464.09;;;9.37;100.00
30554;BME280;17335;50.720;7.452;2024-01-30T11:02:19;100476.81;;;9.59;100.00
30554;BME280;17335;50.720;7.452;2024-01-30T11:04:46;100468.44;;;9.64;100.00
30554;BME280;17335;50.720;7.452;2024-01-30T11:07:18;100463.59;;;9.69;100.00
30554;BME280;17335;50.720;7.452;2024-01-30T11:09:52;100453.72;;;9.69;100.00
30554;BME280;17335;50.720;7.452;2024-01-30T11:12:23;100459.66;;;9.62;100.00
30554;BME280;17335;50.720;7.452;2024-01-30T11:15:10;100454.91;;;9.65;100.00
30554;BME280;17335;50.720;7.452;2024-01-30T11:17:44;100447.97;;;9.63;100.00
30554;BME280;17335;50.720;7.452;2024-01-30T11:20:23;100441.09;;;9.58;100.00
30554;BME280;17335;50.720;7.452;2024-01-30T11:22:52;100436.59;;;9.59;100.00
30554;BME280;17335;50.720;7.452;2024-01-30T11:25:20;100443.09;;;9.68;100.00
30554;BME280;17335;50.720;7.452;2024-01-30T11:27:49;100439.78;;;9.64;100.00
30554;BME280;17335;50.720;7.452;2024-01-30T11:30:31;100436.78;;;9.69;100.00
30554;BME280;17335;50.720;7.452;2024-01-30T11:33:05;100431.63;;;9.79;100.00
30554;BME280;17335;50.720;7.452;2024-01-30T11:35:51;100421.84;;;9.77;100.00
30554;BME280;17335;50.720;7.452;2024-01-30T11:38:18;100426.88;;;9.82;100.00
30554;BME280;17335;50.720;7.452;2024-01-30T11:40:45;100420.66;;;9.82;100.00
30554;BME280;17335;50.720;7.452;2024-01-30T11:43:12;100429.66;;;9.81;100.00
30554;BME280;17335;50.720;7.452;2024-01-30T11:45:39;100425.50;;;9.76;100.00
30554;BME280;17335;50.720;7.452;2024-01-30T11:48:06;100427.09;;;9.79;100.00
30554;BME280;17335;50.720;7.452;2024-01-30T11:50:34;100418.94;;;9.81;100.00
30554;BME280;17335;50.720;7.452;2024-01-30T11:53:01;100418.09;;;9.80;100.00
30554;BME280;17335;50.720;7.452;2024-01-30T11:55:31;100422.56;;;9.80;100.00
30554;BME280;17335;50.720;7.452;2024-01-30T11:58:01;100417.63;;;9.86;100.00
30554;BME280;17335;50.720;7.452;2024-01-30T12:00:28;100415.44;;;9.91;100.00
30554;BME280;17335;50.720;7.452;2024-01-30T12:02:57;100413.25;;;9.85;100.00
30554;BME280;17335;50.720;7.452;2024-01-30T12:05:26;100411.41;;;9.86;100.00
30554;BME280;17335;50.720;7.452;2024-01-30T12:07:53;100417.72;;;9.85;100.00
30554;BME280;17335;50.720;7.452;2024-01-30T12:10:20;100411.69;;;9.94;100.00
30554;BME280;17335;50.720;7.452;2024-01-30T12:12:49;100417.81;;;9.96;100.00
30554;BME280;17335;50.720;7.452;2024-01-30T12:15:17;100421.44;;;9.95;100.00
30554;BME280;17335;50.720;7.452;2024-01-30T12:17:44;100419.13;;;9.90;100.00
30554;BME280;17335;50.720;7.452;2024-01-30T12:20:12;100430.91;;;9.88;100.00
30554;BME280;17335;50.720;7.452;2024-01-30T12:22:44;100420.78;;;10.04;100.00
30554;BME280;17335;50.720;7.452;2024-01-30T12:25:15;100427.59;;;10.08;100.00
30554;BME280;17335;50.720;7.452;2024-01-30T12:27:43;100424.59;;;10.13;100.00
30554;BME280;17335;50.720;7.452;2024-01-30T12:30:12;100415.09;;;10.20;100.00
30554;BME280;17335;50.720;7.452;2024-01-30T12:32:44;100413.25;;;10.34;100.00
30554;BME280;17335;50.720;7.452;2024-01-30T12:35:13;100405.81;;;10.37;100.00
30554;BME280;17335;50.720;7.452;2024-01-30T12:37:40;100406.19;;;10.44;100.00
30554;BME280;17335;50.720;7.452;2024-01-30T12:40:07;100406.47;;;10.52;100.00
30554;BME280;17335;50.720;7.452;2024-01-30T12:42:35;100410.72;;;10.55;100.00
30554;BME280;17335;50.720;7.452;2024-01-30T12:45:02;100411.44;;;10.57;100.00
30554;BME280;17335;50.720;7.452;2024-01-30T12:47:29;100406.31;;;10.54;100.00
30554;BME280;17335;50.720;7.452;2024-01-30T12:49:56;100408.31;;;10.63;100.00
30554;BME280;17335;50.720;7.452;2024-01-30T12:52:23;100415.88;;;10.58;100.00
30554;BME280;17335;50.720;7.452;2024-01-30T12:54:50;100420.84;;;10.62;100.00